Time;durP1;ratioP1;P1;durP2;ratioP2;P2;SDS_P1;SDS_P2;PMS_P1;PMS_P2;Temp;Humidity;BMP_temperature;BMP_pressure;BME280_temperature;BME280_humidity;BME280_pressure;Samples;Min_cycle;Max_cycle;Signal;HPM_P1;HPM_P2
2023/10/12 00:00:41;;;;;;;;;12.25;8.00;;;;;20.63;48.83;101107.69;5035908;28;45418;-57
2023/10/12 00:03:07;;;;;;;;;8.75;7.25;;;;;20.60;48.91;101090.00;5035652;28;47372;-42
2023/10/12 00:05:34;;;;;;;;;9.50;7.25;;;;;20.65;48.71;101100.22;5035808;28;45302;-51
2023/10/12 00:08:07;;;;;;;;;10.00;9.25;;;;;20.60;48.93;101092.69;5035698;28;45503;-50
2023/10/12 00:10:44;;;;;;;;;11.25;7.00;;;;;20.57;49.01;101082.31;5035969;28;45477;-54
2023/10/12 00:13:12;;;;;;;;;11.75;8.75;;;;;20.61;49.28;101085.44;5035206;28;45451;-42
2023/10/12 00:15:39;;;;;;;;;8.75;8.25;;;;;20.61;49.04;101093.56;5035492;28;45422;-42
2023/10/12 00:18:08;;;;;;;;;11.50;9.50;;;;;20.60;49.36;101100.81;5035540;28;45397;-40
2023/10/12 00:20:38;;;;;;;;;12.50;9.50;;;;;20.59;48.91;101090.22;5035701;28;45404;-41
2023/10/12 00:23:09;;;;;;;;;10.50;7.00;;;;;20.62;48.43;101093.34;5018255;28;47242;-45
2023/10/12 00:25:58;;;;;;;;;11.50;8.50;;;;;20.60;48.86;101087.28;5034403;28;45355;-43
2023/10/12 00:28:28;;;;;;;;;7.50;7.50;;;;;20.64;49.50;101087.72;5035218;28;45424;-42
2023/10/12 00:31:05;;;;;;;;;4.25;4.00;;;;;20.62;49.30;101076.28;5035449;28;45346;-54
2023/10/12 00:33:31;;;;;;;;;11.50;8.00;;;;;20.59;49.63;101077.53;5037197;28;45441;-57
2023/10/12 00:36:12;;;;;;;;;10.00;9.00;;;;;20.57;49.03;101071.50;5038636;28;45374;-57
2023/10/12 00:38:45;;;;;;;;;12.00;9.25;;;;;20.59;48.88;101080.22;5038612;28;45396;-55
2023/10/12 00:41:14;;;;;;;;;10.50;8.00;;;;;20.60;49.30;101078.34;5038904;28;45332;-57
2023/10/12 00:49:21;;;;;;;;;11.00;9.25;;;;;20.54;49.59;101081.88;5038642;28;45453;-55
2023/10/12 00:51:50;;;;;;;;;15.25;10.50;;;;;20.49;49.61;101079.81;5037954;28;45419;-42
2023/10/12 00:57:05;;;;;;;;;12.25;10.00;;;;;20.54;49.55;101090.00;5038528;28;45404;-56
2023/10/12 00:59:34;;;;;;;;;15.25;9.25;;;;;20.47;50.00;101070.19;5038283;28;45404;-49
2023/10/12 01:02:02;;;;;;;;;9.25;9.25;;;;;20.52;50.23;101081.25;5038334;28;45422;-46
2023/10/12 01:04:30;;;;;;;;;9.75;8.25;;;;;20.54;50.40;101069.22;5038161;28;46382;-42
2023/10/12 01:06:59;;;;;;;;;7.25;7.25;;;;;20.55;49.96;101060.06;5038337;28;45326;-43
2023/10/12 01:09:28;;;;;;;;;11.25;8.75;;;;;20.51;49.66;101060.66;5038273;28;45433;-43
2023/10/12 01:12:06;;;;;;;;;8.50;7.00;;;;;20.54;49.92;101063.81;5038541;28;45452;-42
2023/10/12 01:14:31;;;;;;;;;10.00;8.00;;;;;20.53;50.25;101062.16;5037920;28;46637;-41
2023/10/12 01:17:04;;;;;;;;;12.75;10.00;;;;;20.44;50.16;101033.63;5037937;28;45340;-42
2023/10/12 01:19:33;;;;;;;;;8.25;8.00;;;;;20.44;50.72;101050.66;5038160;28;45317;-44
2023/10/12 01:22:04;;;;;;;;;9.25;8.75;;;;;20.42;50.13;101050.00;5038424;28;45352;-47
2023/10/12 01:24:31;;;;;;;;;13.50;12.00;;;;;20.41;50.60;101053.75;5037893;28;45416;-44
2023/10/12 01:26:59;;;;;;;;;9.25;7.25;;;;;20.34;50.88;101041.25;5037666;28;45403;-42
2023/10/12 01:29:25;;;;;;;;;10.75;8.50;;;;;20.42;50.67;101050.00;5037934;28;45380;-41
2023/10/12 01:34:39;;;;;;;;;11.00;9.75;;;;;20.48;50.98;101058.34;5037483;28;46069;-43
2023/10/12 01:37:21;;;;;;;;;13.75;11.75;;;;;20.56;50.59;101060.88;5037676;28;45341;-43
2023/10/12 01:42:49;;;;;;;;;9.00;9.00;;;;;20.63;50.19;101057.16;5037921;28;45445;-41
2023/10/12 01:45:18;;;;;;;;;10.00;8.50;;;;;20.63;50.18;101056.34;5037101;28;46114;-42
2023/10/12 01:47:45;;;;;;;;;16.25;9.50;;;;;20.64;50.63;101064.22;5037549;28;45391;-43
2023/10/12 01:50:11;;;;;;;;;9.25;8.00;;;;;20.54;50.60;101053.00;5037618;28;45356;-42
2023/10/12 01:52:36;;;;;;;;;12.50;8.75;;;;;20.53;51.07;101045.94;5037637;28;45261;-42
2023/10/12 01:55:15;;;;;;;;;9.00;9.00;;;;;20.59;51.10;101068.59;5037554;28;46449;-42
2023/10/12 01:57:47;;;;;;;;;12.25;9.25;;;;;20.50;51.54;101054.44;5037381;28;45315;-42
2023/10/12 02:00:15;;;;;;;;;14.00;9.50;;;;;20.54;51.18;101053.00;5019568;28;45334;-41
2023/10/12 02:02:49;;;;;;;;;9.75;9.00;;;;;20.54;51.05;101061.09;5037294;28;45320;-43
2023/10/12 02:05:23;;;;;;;;;14.75;6.50;;;;;20.49;50.93;101058.19;5019548;28;46128;-42
2023/10/12 02:07:52;;;;;;;;;11.75;10.25;;;;;20.53;51.40;101067.53;5037534;28;45528;-43
2023/10/12 02:10:18;;;;;;;;;8.75;7.00;;;;;20.55;50.90;101061.94;5037476;28;45400;-42
2023/10/12 02:12:43;;;;;;;;;13.00;8.00;;;;;20.50;51.24;101057.13;5037379;28;45210;-42
2023/10/12 02:15:14;;;;;;;;;11.25;8.00;;;;;20.59;50.76;101071.28;5036973;28;46293;-42
2023/10/12 02:17:42;;;;;;;;;14.00;11.50;;;;;20.61;51.46;101069.22;5036095;28;45715;-42
2023/10/12 02:20:11;;;;;;;;;8.00;8.00;;;;;20.65;51.43;101073.19;5037407;28;45350;-42
2023/10/12 02:22:36;;;;;;;;;8.25;6.00;;;;;20.64;50.92;101064.22;5037158;28;45503;-41
2023/10/12 02:25:26;;;;;;;;;14.25;9.25;;;;;20.66;51.12;101069.44;5002428;28;47174;-42
2023/10/12 02:27:58;;;;;;;;;7.00;7.00;;;;;20.60;51.37;101057.56;5036179;28;45788;-43
2023/10/12 02:30:27;;;;;;;;;9.75;8.75;;;;;20.57;51.30;101055.28;5037236;28;45274;-43
2023/10/12 02:33:07;;;;;;;;;10.25;9.75;;;;;20.62;51.06;101066.31;5037322;28;45523;-45
2023/10/12 02:35:44;;;;;;;;;9.75;5.00;;;;;20.63;51.57;101067.97;5036793;28;45321;-43
2023/10/12 02:38:14;;;;;;;;;9.75;7.25;;;;;20.62;51.05;101071.72;5036459;28;45442;-45
2023/10/12 02:40:41;;;;;;;;;11.00;7.25;;;;;20.64;51.00;101074.22;5018820;28;45391;-45
2023/10/12 02:43:09;;;;;;;;;10.25;8.50;;;;;20.61;51.45;101063.81;5036868;28;45471;-42
2023/10/12 02:45:40;;;;;;;;;10.25;10.25;;;;;20.63;51.01;101069.84;5036602;28;45487;-41
2023/10/12 02:48:12;;;;;;;;;11.75;9.25;;;;;20.65;51.54;101086.72;5036875;28;45454;-44
2023/10/12 02:53:28;;;;;;;;;12.50;9.75;;;;;20.66;50.93;101074.84;5036636;28;46004;-41
2023/10/12 02:55:58;;;;;;;;;10.00;8.25;;;;;20.65;51.09;101062.38;5035317;28;46595;-42
2023/10/12 02:58:24;;;;;;;;;10.00;8.75;;;;;20.62;51.00;101043.84;5036181;28;45403;-42
2023/10/12 03:00:55;;;;;;;;;9.50;8.75;;;;;20.57;51.22;101047.19;5018542;28;45379;-41
2023/10/12 03:03:31;;;;;;;;;12.00;8.50;;;;;20.54;51.80;101065.69;5036637;28;45384;-41
2023/10/12 03:06:07;;;;;;;;;10.00;7.00;;;;;20.56;51.67;101047.38;5036609;28;46142;-42
2023/10/12 03:08:34;;;;;;;;;14.00;11.00;;;;;20.55;51.80;101053.81;5036298;28;45874;-43
2023/10/12 03:13:35;;;;;;;;;14.25;13.75;;;;;20.54;51.60;101053.00;5036106;28;45389;-42
2023/10/12 03:18:36;;;;;;;;;76.00;54.67;;;;;20.56;51.93;101050.06;5036167;28;45365;-41
2023/10/12 03:21:23;;;;;;;;;15.33;14.67;;;;;20.54;51.87;101052.16;5036162;28;45325;-41
2023/10/12 03:23:47;;;;;;;;;10.50;9.75;;;;;20.47;52.24;101043.16;5035798;28;45519;-42
2023/10/12 03:26:24;;;;;;;;;12.00;10.25;;;;;20.49;52.52;101046.53;5036067;28;46135;-42
2023/10/12 03:28:51;;;;;;;;;10.00;10.00;;;;;20.43;52.72;101054.38;5035718;28;45401;-41
2023/10/12 03:31:23;;;;;;;;;11.50;10.00;;;;;20.43;52.26;101059.78;5035723;28;45338;-41
2023/10/12 03:33:55;;;;;;;;;12.75;10.00;;;;;20.48;52.38;101069.16;5036210;28;45418;-41
2023/10/12 03:36:31;;;;;;;;;12.75;9.00;;;;;20.49;52.49;101066.28;5035710;28;47347;-41
2023/10/12 03:39:09;;;;;;;;;9.00;9.00;;;;;20.50;52.62;101076.06;5035784;28;45561;-40
2023/10/12 03:44:36;;;;;;;;;8.50;8.00;;;;;20.47;52.55;101062.06;5035748;28;45411;-41
2023/10/12 03:47:14;;;;;;;;;10.75;9.00;;;;;20.52;52.52;101079.41;5020193;28;47059;-40
2023/10/12 03:50:06;;;;;;;;;11.25;9.00;;;;;20.55;52.51;101067.34;5035530;28;45356;-41
2023/10/12 03:52:34;;;;;;;;;15.25;10.00;;;;;20.52;52.53;101063.19;5035170;28;45459;-41
2023/10/12 04:02:41;;;;;;;;;11.75;8.25;;;;;20.56;53.01;101050.94;5035380;28;45463;-41
2023/10/12 04:13:09;;;;;;;;;12.00;11.50;;;;;20.60;52.99;101059.44;5039089;28;45479;-41
2023/10/12 04:16:21;;;;;;;;;13.00;10.25;;;;;20.59;52.68;101055.91;5039016;28;45598;-41
2023/10/12 04:18:28;;;;;;;;;12.50;10.00;;;;;20.61;52.77;101053.00;5038583;28;45859;-41
2023/10/12 04:20:57;;;;;;;;;11.00;8.00;;;;;20.62;53.14;101054.66;5039226;28;45521;-43
2023/10/12 04:26:37;;;;;;;;;10.50;9.25;;;;;20.60;53.22;101068.38;5039175;28;45306;-42
2023/10/12 04:28:56;;;;;;;;;11.00;10.75;;;;;20.63;52.90;101070.69;5038611;28;46006;-42
2023/10/12 04:41:38;;;;;;;;;8.75;8.25;;;;;20.71;53.17;101068.81;5038714;28;45236;-45
2023/10/12 04:46:49;;;;;;;;;10.75;7.50;;;;;20.73;53.27;101086.53;5038944;28;45291;-51
2023/10/12 04:51:49;;;;;;;;;11.25;9.50;;;;;20.73;53.00;101077.53;5038104;28;45365;-46
2023/10/12 04:54:23;;;;;;;;;8.25;7.75;;;;;20.74;53.07;101079.25;5038613;28;45858;-49
2023/10/12 05:00:00;;;;;;;;;10.50;9.00;;;;;20.70;52.99;101078.81;5038190;28;45936;-44
2023/10/12 05:02:30;;;;;;;;;10.00;9.25;;;;;20.71;52.91;101076.94;5037675;28;45400;-49
2023/10/12 05:07:28;;;;;;;;;11.25;8.75;;;;;20.65;53.11;101071.31;5038619;28;45265;-51
2023/10/12 05:09:54;;;;;;;;;10.25;8.75;;;;;20.65;53.06;101071.31;5037551;28;45446;-47
2023/10/12 05:12:25;;;;;;;;;11.25;8.50;;;;;20.62;53.52;101073.59;5037754;28;45357;-42
2023/10/12 05:15:00;;;;;;;;;9.75;9.75;;;;;20.64;53.25;101079.63;5038105;28;45508;-46
2023/10/12 05:17:27;;;;;;;;;9.00;9.00;;;;;20.63;53.44;101067.97;5038479;28;45448;-44
2023/10/12 05:19:53;;;;;;;;;12.75;10.00;;;;;20.63;53.33;101070.69;5036306;28;45315;-43
2023/10/12 05:22:19;;;;;;;;;10.25;8.25;;;;;20.62;53.43;101069.03;5037964;28;45323;-44
2023/10/12 05:24:46;;;;;;;;;14.25;10.75;;;;;20.60;53.92;101071.06;5038251;28;45387;-40
2023/10/12 05:27:24;;;;;;;;;19.25;11.25;;;;;20.56;53.85;101082.50;5038203;28;45431;-42
2023/10/12 05:29:59;;;;;;;;;10.25;9.75;;;;;20.48;53.76;101070.03;5037607;28;45494;-42
2023/10/12 05:32:36;;;;;;;;;9.50;8.00;;;;;20.55;53.53;101084.38;5037932;28;45348;-48
2023/10/12 05:35:05;;;;;;;;;11.50;10.50;;;;;20.56;54.26;101080.66;5037896;28;45277;-50
2023/10/12 05:37:48;;;;;;;;;9.75;8.00;;;;;20.55;53.95;101067.34;5038200;28;45420;-46
2023/10/12 05:40:14;;;;;;;;;11.75;9.75;;;;;20.55;53.94;101067.34;5037018;28;46059;-52
2023/10/12 05:42:40;;;;;;;;;16.50;10.50;;;;;20.48;53.99;101061.94;5038042;28;45482;-41
2023/10/12 05:45:19;;;;;;;;;13.75;11.00;;;;;20.48;54.34;101071.84;5037576;28;45699;-41
2023/10/12 05:47:50;;;;;;;;;13.25;10.50;;;;;20.48;54.46;101064.63;5038059;28;45237;-43
2023/10/12 05:50:15;;;;;;;;;11.50;10.50;;;;;20.45;54.21;101081.22;5037477;28;47314;-41
2023/10/12 05:52:40;;;;;;;;;11.00;8.00;;;;;20.43;54.40;101086.81;5037550;28;45337;-44
2023/10/12 05:55:19;;;;;;;;;14.50;10.25;;;;;20.40;54.39;101091.81;5038065;28;45331;-57
2023/10/12 05:57:44;;;;;;;;;14.75;12.00;;;;;20.42;54.90;101103.22;5036862;28;45582;-43
2023/10/12 06:00:11;;;;;;;;;11.00;9.00;;;;;20.42;54.86;101108.63;5037362;28;54742;-40
2023/10/12 06:02:37;;;;;;;;;8.00;6.75;;;;;20.39;54.69;101109.03;5037529;28;45375;-49
2023/10/12 06:05:05;;;;;;;;;13.00;10.75;;;;;20.43;54.68;101113.00;5037524;28;45371;-39
2023/10/12 06:07:31;;;;;;;;;12.25;9.00;;;;;20.44;54.53;101118.22;5037691;28;45502;-41
2023/10/12 06:09:56;;;;;;;;;15.75;10.75;;;;;20.36;55.02;101110.28;5037136;28;46256;-40
2023/10/12 06:12:24;;;;;;;;;13.50;9.75;;;;;20.44;54.41;101122.78;5037304;28;45345;-48
2023/10/12 06:14:53;;;;;;;;;12.00;10.00;;;;;20.37;55.14;101114.66;5037464;28;45638;-40
2023/10/12 06:17:30;;;;;;;;;12.75;9.75;;;;;20.47;54.84;101130.47;5036488;28;45344;-39
2023/10/12 06:20:00;;;;;;;;;11.25;11.00;;;;;20.49;54.94;101147.38;5036963;28;45560;-40
2023/10/12 06:22:32;;;;;;;;;13.00;9.50;;;;;20.51;55.26;101153.38;5037233;28;45372;-39
2023/10/12 06:24:59;;;;;;;;;14.25;11.00;;;;;20.48;55.37;101140.31;5037227;28;45393;-39
2023/10/12 06:27:25;;;;;;;;;20.75;18.75;;;;;20.43;55.25;101145.41;5037577;28;45382;-39
2023/10/12 06:29:54;;;;;;;;;14.75;11.00;;;;;20.51;55.02;101188.53;5035729;28;46140;-39
2023/10/12 06:32:32;;;;;;;;;14.25;10.00;;;;;20.54;55.36;101227.84;5036082;28;45402;-40
2023/10/12 06:35:13;;;;;;;;;10.25;9.25;;;;;20.51;55.67;101215.53;5037113;28;45382;-41
2023/10/12 06:45:47;;;;;;;;;16.00;12.00;;;;;20.47;56.74;101189.91;5036735;28;45480;-42
2023/10/12 06:51:03;;;;;;;;;14.25;11.00;;;;;20.44;57.44;101190.34;5036543;28;46110;-38
2023/10/12 06:53:34;;;;;;;;;15.25;12.75;;;;;20.41;58.58;101190.75;5036440;28;45403;-40
2023/10/12 06:58:40;;;;;;;;;17.25;12.25;;;;;20.36;59.14;101221.06;5036772;28;45321;-44
2023/10/12 07:03:49;;;;;;;;;13.25;11.75;;;;;20.30;60.00;101264.25;5036456;28;45506;-40
2023/10/12 07:06:15;;;;;;;;;14.00;11.50;;;;;20.25;61.83;101223.47;5036576;28;45412;-39
2023/10/12 07:08:43;;;;;;;;;19.50;14.25;;;;;20.16;62.33;101212.84;5036805;28;45811;-48
2023/10/12 07:11:11;;;;;;;;;12.75;10.75;;;;;20.03;63.00;101190.31;5035689;28;45332;-38
2023/10/12 07:13:40;;;;;;;;;17.25;13.50;;;;;19.73;63.80;101170.81;5036331;28;45533;-49
2023/10/12 07:16:07;;;;;;;;;13.00;13.00;;;;;19.87;64.38;101200.38;5036175;28;45411;-50
2023/10/12 07:18:34;;;;;;;;;19.75;16.50;;;;;19.85;65.59;101217.81;5036455;28;45214;-47
2023/10/12 07:21:00;;;;;;;;;13.75;12.25;;;;;19.79;65.33;101214.03;5036073;28;46190;-49
2023/10/12 07:23:35;;;;;;;;;13.50;11.75;;;;;19.76;65.52;101210.88;5035752;28;45376;-50
2023/10/12 07:26:06;;;;;;;;;14.25;11.50;;;;;19.69;65.57;101206.28;5035493;28;45359;-47
2023/10/12 07:28:34;;;;;;;;;16.25;13.75;;;;;19.73;64.97;101211.28;5036229;28;45495;-49
2023/10/12 07:36:36;;;;;;;;;19.25;14.50;;;;;19.74;67.33;101219.19;5036158;28;45334;-51
2023/10/12 07:39:21;;;;;;;;;18.00;14.00;;;;;19.79;67.21;101224.81;5036113;28;45457;-46
2023/10/12 07:42:02;;;;;;;;;14.00;13.33;;;;;19.76;66.05;101211.72;5035247;28;47113;-42
2023/10/12 07:44:29;;;;;;;;;18.67;14.67;;;;;19.87;65.36;101227.38;5035681;28;45515;-41
2023/10/12 07:46:57;;;;;;;;;15.50;13.75;;;;;19.90;65.27;101229.69;5035970;28;45408;-46
2023/10/12 07:49:37;;;;;;;;;15.33;13.00;;;;;19.92;65.44;101227.63;5036328;28;45432;-47
2023/10/12 07:54:48;;;;;;;;;18.25;15.75;;;;;20.02;65.36;101234.56;5035628;28;45508;-45
2023/10/12 07:57:17;;;;;;;;;17.33;17.00;;;;;20.03;65.24;101238.94;5035758;28;45411;-47
2023/10/12 08:05:33;;;;;;;;;15.25;14.00;;;;;20.08;65.21;101241.88;5035634;28;45859;-49
2023/10/12 08:13:14;;;;;;;;;18.25;15.00;;;;;20.11;64.83;101239.63;5035358;28;45432;-49
2023/10/12 08:29:17;;;;;;;;;17.00;12.00;;;;;20.04;65.06;101233.31;5035713;28;45328;-40
2023/10/12 08:31:47;;;;;;;;;14.75;13.75;;;;;20.03;64.63;101228.97;5034872;28;45333;-40
2023/10/12 08:37:36;;;;;;;;;17.33;13.67;;;;;20.16;65.31;101234.44;5035309;28;45471;-38
2023/10/12 08:45:08;;;;;;;;;22.75;16.50;;;;;20.28;65.07;101244.72;5034918;28;45428;-40
2023/10/12 08:50:05;;;;;;;;;20.00;16.75;;;;;20.43;65.14;101238.13;5035251;28;45411;-40
2023/10/12 08:52:32;;;;;;;;;21.33;16.67;;;;;20.53;65.48;101235.13;5035029;28;45458;-39
2023/10/12 08:55:19;;;;;;;;;22.67;19.00;;;;;20.59;65.01;101241.56;5037483;28;45568;-40
2023/10/12 08:58:02;;;;;;;;;23.25;20.50;;;;;20.67;65.25;101234.13;5038375;28;45376;-41
2023/10/12 09:03:00;;;;;;;;;25.25;18.25;;;;;20.80;64.55;101229.81;5038045;28;45506;-39
2023/10/12 09:05:33;;;;;;;;;19.75;19.75;;;;;20.86;64.59;101229.03;5038042;28;45631;-41
2023/10/12 09:13:37;;;;;;;;;20.00;20.00;;;;;20.86;63.65;101227.16;5037591;28;45369;-39
2023/10/12 09:16:09;;;;;;;;;23.33;20.00;;;;;20.91;64.02;101223.84;5036582;28;46340;-38
2023/10/12 09:18:43;;;;;;;;;23.67;20.67;;;;;21.04;63.70;101223.03;5037737;28;45485;-39
2023/10/12 09:23:58;;;;;;;;;22.00;19.50;;;;;20.97;63.32;101231.13;5038121;28;45915;-39
2023/10/12 09:26:34;;;;;;;;;25.00;23.00;;;;;20.93;63.53;101213.63;5036556;28;45421;-38
2023/10/12 09:36:43;;;;;;;;;22.50;19.50;;;;;21.13;63.15;101224.50;5037170;28;45344;-38
2023/10/12 09:39:12;;;;;;;;;23.50;19.75;;;;;21.20;62.88;101236.19;5036450;28;45970;-39
2023/10/12 09:41:40;;;;;;;;;21.00;18.75;;;;;21.19;63.38;101234.50;5037939;28;45355;-41
2023/10/12 09:44:11;;;;;;;;;27.00;20.50;;;;;21.16;62.96;101240.34;5037876;28;45538;-39
2023/10/12 09:46:48;;;;;;;;;30.75;20.75;;;;;21.06;62.44;101232.59;5037546;28;46271;-39
2023/10/12 09:49:22;;;;;;;;;26.50;24.00;;;;;21.06;62.67;101235.31;5037261;28;45290;-40
2023/10/12 09:51:59;;;;;;;;;24.00;20.50;;;;;21.14;62.48;101242.41;5037511;28;45258;-40
2023/10/12 09:54:48;;;;;;;;;21.00;20.00;;;;;21.20;62.36;101244.31;5037613;28;45664;-44
2023/10/12 09:57:26;;;;;;;;;25.00;20.00;;;;;21.31;61.80;101242.88;5012030;28;45598;-39
2023/10/12 09:59:59;;;;;;;;;26.75;22.50;;;;;21.33;61.71;101236.25;5037113;28;45370;-41
2023/10/12 10:02:29;;;;;;;;;20.75;18.00;;;;;21.29;61.81;101228.72;5036770;28;45473;-39
2023/10/12 10:05:10;;;;;;;;;26.00;21.25;;;;;21.23;61.69;101234.94;5037185;28;45427;-39
2023/10/12 10:07:57;;;;;;;;;25.00;20.75;;;;;21.26;61.72;101239.94;5035763;28;47341;-47
2023/10/12 10:10:36;;;;;;;;;27.75;17.50;;;;;21.28;61.79;101236.00;5036587;28;45463;-45
2023/10/12 10:13:10;;;;;;;;;23.75;19.25;;;;;21.37;61.38;101223.16;5037188;28;45360;-42
2023/10/12 10:15:55;;;;;;;;;22.50;22.00;;;;;21.41;60.74;101221.69;5036717;28;45528;-43
2023/10/12 10:18:28;;;;;;;;;20.00;19.75;;;;;21.58;60.87;101231.06;5036352;28;46503;-37
2023/10/12 10:20:58;;;;;;;;;19.75;18.00;;;;;21.71;60.38;101232.97;5036915;28;45442;-36
2023/10/12 10:23:24;;;;;;;;;20.50;19.25;;;;;21.74;60.37;101227.09;5036972;28;45414;-38
2023/10/12 10:25:56;;;;;;;;;19.00;16.75;;;;;21.83;60.42;101230.47;5019142;28;45458;-39
2023/10/12 10:28:34;;;;;;;;;21.50;18.50;;;;;21.97;60.16;101233.97;5036432;28;46555;-37
2023/10/12 10:31:00;;;;;;;;;19.50;19.00;;;;;22.00;60.01;101217.31;5036796;28;45253;-43
2023/10/12 10:33:28;;;;;;;;;21.50;19.75;;;;;22.11;59.83;101232.91;5035446;28;45408;-38
2023/10/12 10:36:10;;;;;;;;;26.25;21.00;;;;;22.10;59.59;101231.25;5037007;28;45374;-38
2023/10/12 10:38:39;;;;;;;;;24.50;19.75;;;;;22.08;59.49;101233.31;5036559;28;46402;-38
2023/10/12 10:43:55;;;;;;;;;22.25;17.00;;;;;22.14;60.34;101225.22;4955469;28;45383;-40
2023/10/12 10:46:26;;;;;;;;;21.75;15.75;;;;;22.20;59.70;101220.00;4955633;28;45485;-40
2023/10/12 10:48:52;;;;;;;;;20.25;19.50;;;;;22.28;59.73;101226.03;4955034;28;47237;-39
2023/10/12 10:51:18;;;;;;;;;18.00;16.75;;;;;22.34;59.75;101227.06;4955249;28;45450;-39
2023/10/12 10:53:52;;;;;;;;;23.50;18.25;;;;;22.32;59.42;101221.03;4955417;28;45521;-40
2023/10/12 10:56:34;;;;;;;;;19.75;17.25;;;;;22.40;59.63;101218.91;4955468;28;45750;-38
2023/10/12 10:59:00;;;;;;;;;27.25;19.50;;;;;22.46;59.42;101225.38;4955057;28;47370;-38
2023/10/12 11:01:26;;;;;;;;;21.00;17.75;;;;;22.55;59.80;101220.56;4954643;28;45440;-38
2023/10/12 11:03:52;;;;;;;;;20.75;18.75;;;;;22.70;59.35;101221.09;4955349;28;45453;-40
2023/10/12 11:06:21;;;;;;;;;22.50;16.75;;;;;22.89;58.81;101213.94;4955639;28;45407;-42
2023/10/12 11:09:02;;;;;;;;;19.75;17.75;;;;;23.13;58.24;101207.78;4955007;28;45646;-38
2023/10/12 11:11:37;;;;;;;;;23.25;18.00;;;;;23.33;58.20;101210.34;4955343;28;45434;-42
2023/10/12 11:14:08;;;;;;;;;19.00;16.25;;;;;23.32;58.35;101197.00;4955374;28;45485;-39
2023/10/12 11:16:34;;;;;;;;;23.75;18.25;;;;;23.72;57.39;101210.28;4954760;28;45547;-48
2023/10/12 11:19:00;;;;;;;;;22.50;17.50;;;;;24.11;56.76;101200.94;4954890;28;46516;-41
2023/10/12 11:21:26;;;;;;;;;25.50;20.75;;;;;24.48;56.31;101198.22;5012550;28;45346;-41
2023/10/12 11:24:01;;;;;;;;;22.75;16.50;;;;;24.83;55.40;101190.25;5036246;28;45491;-43
2023/10/12 11:26:26;;;;;;;;;19.25;16.25;;;;;24.93;55.12;101190.53;5036224;28;45340;-41
2023/10/12 11:29:04;;;;;;;;;16.00;15.50;;;;;24.95;55.21;101193.03;5035769;28;46492;-40
2023/10/12 11:31:30;;;;;;;;;24.00;18.00;;;;;24.96;54.89;101202.84;5036047;28;45404;-39
2023/10/12 11:33:56;;;;;;;;;19.00;15.40;;;;;25.08;55.36;101201.00;5035154;28;45330;-39
2023/10/12 11:36:26;;;;;;;;;15.75;15.25;;;;;25.52;54.36;101194.25;5036293;28;45401;-39
2023/10/12 11:38:58;;;;;;;;;22.60;16.80;;;;;25.83;53.99;101195.88;5035774;28;45665;-38
2023/10/12 11:41:25;;;;;;;;;20.00;14.60;;;;;26.05;53.52;101189.81;5036166;28;45327;-39
2023/10/12 11:43:53;;;;;;;;;19.60;16.40;;;;;26.25;52.68;101184.81;5018087;28;45334;-40
2023/10/12 11:46:19;;;;;;;;;18.75;14.75;;;;;26.61;52.21;101183.66;5036123;28;45533;-43
2023/10/12 11:49:00;;;;;;;;;18.80;16.20;;;;;26.64;51.82;101173.34;5035659;28;45374;-41
2023/10/12 11:51:26;;;;;;;;;18.00;15.40;;;;;26.70;51.76;101189.56;5036071;28;45311;-38
2023/10/12 11:53:53;;;;;;;;;16.75;16.75;;;;;26.78;51.87;101172.81;5035911;28;45316;-42
2023/10/12 11:56:22;;;;;;;;;16.60;15.40;;;;;26.78;52.27;101171.97;5036000;28;45443;-39
2023/10/12 11:58:51;;;;;;;;;19.00;15.40;;;;;26.80;52.16;101167.94;5035611;28;46123;-39
2023/10/12 12:01:18;;;;;;;;;19.60;17.00;;;;;26.81;52.25;101176.97;5035544;28;45369;-38
2023/10/12 12:03:45;;;;;;;;;15.60;12.60;;;;;26.71;52.82;101174.03;5035650;28;45426;-43
2023/10/12 12:06:18;;;;;;;;;20.40;17.60;;;;;26.40;53.22;101180.75;5035962;28;45884;-47
2023/10/12 12:08:45;;;;;;;;;15.60;13.80;;;;;26.02;54.11;101177.47;5035705;28;46110;-39
2023/10/12 12:11:13;;;;;;;;;17.60;14.60;;;;;25.73;55.34;101175.69;5035693;28;45474;-39
2023/10/12 12:13:47;;;;;;;;;19.00;16.00;;;;;25.38;56.28;101174.59;5035890;28;45379;-42
2023/10/12 12:16:15;;;;;;;;;14.00;11.20;;;;;25.01;56.85;101156.72;5035933;28;45497;-41
2023/10/12 12:18:40;;;;;;;;;20.25;17.25;;;;;24.90;57.36;101163.78;5035218;28;47998;-45
2023/10/12 12:21:15;;;;;;;;;17.25;14.00;;;;;24.66;58.41;101170.19;5035598;28;45399;-41
2023/10/12 12:23:40;;;;;;;;;17.60;12.60;;;;;24.44;59.07;101159.81;5034562;28;45403;-38
2023/10/12 12:26:09;;;;;;;;;17.50;14.25;;;;;24.35;59.65;101164.66;5035041;28;45459;-42
2023/10/12 12:28:43;;;;;;;;;15.20;14.80;;;;;24.28;60.02;101163.09;5037800;28;46600;-42
2023/10/12 12:31:13;;;;;;;;;22.60;16.40;;;;;24.19;59.95;101170.75;5037067;28;45487;-40
2023/10/12 12:33:43;;;;;;;;;13.40;13.40;;;;;24.07;59.94;101162.50;5038770;28;45483;-44
2023/10/12 12:36:13;;;;;;;;;11.50;9.25;;;;;23.94;60.52;101168.06;5038967;28;45523;-44
2023/10/12 12:41:12;;;;;;;;;16.00;14.40;;;;;23.51;61.65;101130.00;5020874;28;45450;-40
2023/10/12 12:43:38;;;;;;;;;15.40;12.00;;;;;23.62;61.97;101175.44;5038939;28;45320;-41
2023/10/12 12:46:05;;;;;;;;;14.00;10.50;;;;;23.49;62.22;101173.69;5038935;28;45456;-40
2023/10/12 12:48:30;;;;;;;;;12.50;11.25;;;;;23.49;62.95;101176.38;5036472;28;46305;-39
2023/10/12 12:50:56;;;;;;;;;16.00;14.25;;;;;23.46;62.60;101184.97;5038479;28;45440;-38
2023/10/12 12:53:21;;;;;;;;;14.00;11.25;;;;;23.41;63.00;101180.19;5038724;28;45464;-37
2023/10/12 12:55:46;;;;;;;;;15.50;13.50;;;;;23.40;63.01;101181.25;5038814;28;45365;-38
2023/10/12 12:58:15;;;;;;;;;17.25;14.00;;;;;23.42;63.07;101178.31;5038338;28;45363;-40
2023/10/12 13:00:48;;;;;;;;;14.20;13.20;;;;;23.43;63.25;101177.28;5038343;28;45458;-40
2023/10/12 13:03:17;;;;;;;;;20.20;12.80;;;;;23.39;63.70;101173.34;5037589;28;45435;-39
2023/10/12 13:05:42;;;;;;;;;14.75;12.75;;;;;23.43;63.68;101177.28;5038582;28;45438;-38
2023/10/12 13:08:11;;;;;;;;;13.50;12.00;;;;;23.47;63.69;101177.66;5020688;28;45419;-39
2023/10/12 13:10:39;;;;;;;;;20.00;13.00;;;;;23.52;63.19;101178.66;5038253;28;45320;-39
2023/10/12 13:13:06;;;;;;;;;16.40;12.80;;;;;23.57;63.43;101175.28;5038370;28;45463;-38
2023/10/12 13:15:31;;;;;;;;;12.75;11.75;;;;;23.60;62.85;101181.09;5038360;28;45630;-38
2023/10/12 13:18:00;;;;;;;;;9.75;9.75;;;;;23.67;62.81;101180.25;5038137;28;46358;-40
2023/10/12 13:20:31;;;;;;;;;10.60;10.20;;;;;23.69;62.76;101172.72;5038017;28;45456;-42
2023/10/12 13:22:56;;;;;;;;;11.80;10.80;;;;;23.81;62.43;101179.09;5038227;28;45349;-38
2023/10/12 13:25:25;;;;;;;;;15.50;10.25;;;;;23.79;62.30;101171.13;5038578;28;45249;-51
2023/10/12 13:27:52;;;;;;;;;10.60;10.00;;;;;23.77;61.77;101167.81;5037987;28;45397;-47
2023/10/12 13:30:18;;;;;;;;;12.00;9.60;;;;;23.78;61.86;101174.09;5038293;28;45292;-40
2023/10/12 13:32:44;;;;;;;;;9.60;8.60;;;;;23.79;61.60;101168.41;5038079;28;45376;-44
2023/10/12 13:38:11;;;;;;;;;9.60;7.00;;;;;23.82;62.13;101184.28;4956873;28;47276;-44
2023/10/12 13:40:46;;;;;;;;;10.20;7.00;;;;;23.79;62.35;101192.03;4956188;28;45418;-45
2023/10/12 13:43:21;;;;;;;;;10.40;9.00;;;;;23.72;62.15;101185.81;4957129;28;45251;-45
2023/10/12 13:45:49;;;;;;;;;9.00;8.00;;;;;23.68;62.02;101190.03;4957004;28;45393;-41
2023/10/12 13:48:17;;;;;;;;;13.20;6.80;;;;;23.61;62.53;101188.19;4956675;28;45454;-38
2023/10/12 13:50:46;;;;;;;;;7.20;6.20;;;;;23.49;62.21;101170.97;4956866;28;45665;-39
2023/10/12 13:53:13;;;;;;;;;10.00;7.00;;;;;23.53;62.69;101183.03;4956423;28;45366;-40
2023/10/12 13:55:38;;;;;;;;;9.60;6.80;;;;;23.42;62.42;101172.88;4956119;28;45402;-41
2023/10/12 13:58:03;;;;;;;;;9.25;7.00;;;;;23.44;62.73;101178.94;4956378;28;45412;-39
2023/10/12 14:00:33;;;;;;;;;8.75;6.75;;;;;23.41;62.76;101187.53;4956416;28;45582;-36